Time;durP1;ratioP1;P1;durP2;ratioP2;P2;SDS_P1;SDS_P2;PMS_P1;PMS_P2;Temp;Humidity;BMP_temperature;BMP_pressure;BME280_temperature;BME280_humidity;BME280_pressure;Samples;Min_cycle;Max_cycle;Signal;HPM_P1;HPM_P2
2023/05/31 00:05:33;;;;;;;9.25;7.32;;;;;;;10.54;59.38;101469.97;20983319;28;20236;-80
2023/05/31 00:15:35;;;;;;;11.10;8.32;;;;;;;10.45;59.85;101469.00;21062271;28;20210;-81
2023/05/31 00:25:38;;;;;;;14.50;8.40;;;;;;;10.41;59.85;101467.94;20980984;28;20248;-82
2023/05/31 00:35:40;;;;;;;15.50;8.50;;;;;;;10.56;59.22;101462.03;20988220;28;20269;-82
2023/05/31 00:45:43;;;;;;;10.37;8.47;;;;;;;10.00;60.54;101463.09;20968803;28;20213;-80
2023/05/31 00:55:45;;;;;;;10.65;8.45;;;;;;;9.73;61.60;101468.69;20967625;28;20246;-80
2023/05/31 01:05:47;;;;;;;11.47;9.20;;;;;;;10.33;60.06;101468.69;20983962;28;20253;-80
2023/05/31 01:16:07;;;;;;;10.40;9.30;;;;;;;9.94;60.67;101470.00;20972955;28;20288;-79
2023/05/31 01:26:17;;;;;;;12.20;9.20;;;;;;;10.39;59.47;101465.44;20907342;28;20209;-81
2023/05/31 01:36:19;;;;;;;9.53;8.60;;;;;;;10.26;59.79;101464.28;20961203;28;20215;-82
2023/05/31 01:46:22;;;;;;;8.80;7.90;;;;;;;9.25;62.66;101465.25;20966627;28;20211;-81
2023/05/31 01:56:25;;;;;;;11.67;9.13;;;;;;;9.91;60.67;101477.09;20944916;28;20218;-79
2023/05/31 02:06:28;;;;;;;9.80;8.80;;;;;;;9.77;60.70;101464.13;20960483;28;20702;-78
2023/05/31 02:16:31;;;;;;;13.47;9.40;;;;;;;9.77;60.97;101470.59;20973297;28;20218;-79
2023/05/31 02:26:34;;;;;;;10.77;8.55;;;;;;;9.64;61.52;101470.56;20952604;28;20229;-79
2023/05/31 02:36:36;;;;;;;11.30;9.27;;;;;;;9.40;62.33;101477.13;20958373;28;20276;-79
2023/05/31 02:46:39;;;;;;;10.40;8.63;;;;;;;9.34;62.55;101477.50;20990602;28;20629;-79
2023/05/31 02:56:42;;;;;;;12.25;8.85;;;;;;;9.35;62.69;101474.38;20998064;28;20556;-79
2023/05/31 03:06:49;;;;;;;10.23;8.85;;;;;;;9.21;63.08;101468.66;20951009;28;20228;-79
2023/05/31 03:16:52;;;;;;;8.93;8.00;;;;;;;9.12;63.21;101456.44;20920418;28;20219;-78
2023/05/31 03:26:54;;;;;;;10.30;8.70;;;;;;;8.94;63.60;101460.06;20934612;28;20184;-79
2023/05/31 03:36:57;;;;;;;11.23;8.13;;;;;;;9.04;63.33;101447.84;20965547;28;20257;-79
2023/05/31 03:47:20;;;;;;;11.07;8.60;;;;;;;9.41;62.20;101456.25;20960978;28;20258;-78
2023/05/31 03:57:22;;;;;;;12.80;9.45;;;;;;;8.95;64.13;101458.94;20871527;28;20215;-78
2023/05/31 04:07:25;;;;;;;11.70;9.37;;;;;;;8.79;65.14;101454.66;21045489;28;20496;-78
2023/05/31 04:17:28;;;;;;;10.77;9.23;;;;;;;8.57;66.35;101454.38;21022334;28;20260;-79
2023/05/31 04:27:32;;;;;;;15.38;10.57;;;;;;;8.90;65.17;101473.09;20957961;28;20592;-78
2023/05/31 04:37:39;;;;;;;16.03;12.03;;;;;;;9.02;64.29;101452.94;20961948;28;20226;-78
2023/05/31 04:47:45;;;;;;;19.27;14.83;;;;;;;9.06;64.97;101452.00;20967609;28;20213;-78
2023/05/31 04:57:48;;;;;;;21.48;16.02;;;;;;;8.81;66.82;101464.47;20983535;28;20211;-78
2023/05/31 05:07:51;;;;;;;21.80;16.50;;;;;;;9.85;62.87;101466.22;20988022;28;20272;-79
2023/05/31 05:17:54;;;;;;;17.77;15.87;;;;;;;9.88;63.17;101465.59;20973431;28;20278;-77
2023/05/31 05:27:57;;;;;;;17.03;12.77;;;;;;;9.86;62.63;101467.88;20971550;28;20813;-77
2023/05/31 05:38:00;;;;;;;18.05;14.20;;;;;;;10.32;61.18;101461.38;20936047;28;20277;-77
2023/05/31 05:48:03;;;;;;;19.00;12.98;;;;;;;10.40;60.70;101466.28;20978179;28;20648;-78
2023/05/31 05:58:09;;;;;;;17.55;12.80;;;;;;;10.47;60.28;101463.88;20994180;28;20219;-77
2023/05/31 06:08:38;;;;;;;18.42;13.05;;;;;;;10.98;58.95;101472.94;20970461;28;20503;-78
2023/05/31 06:18:41;;;;;;;20.00;12.18;;;;;;;11.22;57.75;101478.31;21005666;28;20260;-79
2023/05/31 06:28:45;;;;;;;14.82;11.18;;;;;;;11.06;59.32;101487.47;20960915;28;20213;-79
2023/05/31 06:39:07;;;;;;;12.00;10.63;;;;;;;11.36;59.07;101475.47;20990245;28;20261;-78
2023/05/31 06:49:09;;;;;;;17.80;10.63;;;;;;;12.09;56.03;101471.28;20960515;28;20487;-79
2023/05/31 06:59:40;;;;;;;13.48;9.95;;;;;;;12.02;56.77;101460.44;20984653;28;20256;-79
2023/05/31 07:09:42;;;;;;;17.67;11.43;;;;;;;12.30;54.61;101466.72;20942611;28;20272;-79
2023/05/31 07:19:46;;;;;;;24.52;9.88;;;;;;;13.24;52.57;101453.13;20952662;28;20191;-79
2023/05/31 07:29:50;;;;;;;10.93;7.25;;;;;;;13.86;49.88;101436.53;20975755;28;20249;-78
2023/05/31 07:39:52;;;;;;;13.32;8.10;;;;;;;13.57;51.10;101445.78;20996231;28;20190;-78
2023/05/31 07:49:55;;;;;;;12.15;7.60;;;;;;;14.38;50.32;101442.03;21025397;28;20211;-79
2023/05/31 07:59:57;;;;;;;15.27;7.80;;;;;;;14.35;48.48;101432.19;20999786;28;20240;-78
2023/05/31 08:09:59;;;;;;;11.10;6.90;;;;;;;15.41;46.31;101429.13;21000142;28;20624;-78
2023/05/31 08:20:06;;;;;;;11.07;7.20;;;;;;;14.95;45.62;101421.66;20981823;28;20257;-79
2023/05/31 08:30:09;;;;;;;13.93;6.53;;;;;;;15.35;47.55;101419.16;21002226;28;20273;-78
2023/05/31 08:40:12;;;;;;;19.50;5.15;;;;;;;15.98;43.75;101403.59;21001617;28;20183;-79
2023/05/31 08:50:14;;;;;;;9.20;5.55;;;;;;;15.92;43.50;101403.00;21015896;28;20203;-79
2023/05/31 09:00:18;;;;;;;9.30;4.15;;;;;;;16.44;42.14;101393.78;21014845;28;20588;-78
2023/05/31 09:10:21;;;;;;;8.98;3.30;;;;;;;17.10;38.47;101384.03;21049052;28;20281;-79
2023/05/31 09:20:32;;;;;;;7.75;3.15;;;;;;;17.40;38.26;101379.69;21016275;28;20233;-79
2023/05/31 09:30:35;;;;;;;6.72;3.47;;;;;;;17.49;36.75;101368.91;21007224;28;20218;-78
2023/05/31 09:40:37;;;;;;;6.40;2.60;;;;;;;18.25;34.32;101352.59;21013379;28;20256;-78
2023/05/31 09:50:39;;;;;;;8.35;2.63;;;;;;;18.31;34.41;101345.38;21024849;28;20256;-80
2023/05/31 10:00:46;;;;;;;8.95;2.67;;;;;;;18.29;34.51;101344.91;21002170;28;20210;-79
2023/05/31 10:10:49;;;;;;;4.90;2.05;;;;;;;19.12;30.77;101328.44;21033485;28;20276;-77
2023/05/31 10:20:53;;;;;;;13.82;2.05;;;;;;;18.64;30.03;101328.66;21002046;28;20180;-78
2023/05/31 10:30:56;;;;;;;4.15;1.73;;;;;;;19.37;28.06;101312.63;20974116;28;20215;-78
2023/05/31 10:41:04;;;;;;;3.35;1.40;;;;;;;18.92;29.79;101296.13;21002401;28;20194;-79
2023/05/31 10:51:07;;;;;;;5.63;1.60;;;;;;;19.27;28.96;101291.19;21029286;28;20234;-77
2023/05/31 11:01:14;;;;;;;3.78;1.35;;;;;;;19.96;26.94;101271.97;20958686;28;20191;-79
2023/05/31 11:11:49;;;;;;;4.22;1.30;;;;;;;19.85;26.56;101270.97;21006878;28;20245;-79
2023/05/31 11:21:54;;;;;;;3.20;1.45;;;;;;;20.25;26.28;101255.22;20986589;28;20191;-79
2023/05/31 11:32:01;;;;;;;6.28;1.80;;;;;;;20.31;26.41;101253.66;20992174;28;20215;-80
2023/05/31 11:42:05;;;;;;;4.60;1.63;;;;;;;20.50;28.69;101250.69;21003555;28;20202;-79
2023/05/31 11:52:08;;;;;;;3.22;1.50;;;;;;;20.67;27.92;101235.75;20963621;28;20489;-78
2023/05/31 12:02:10;;;;;;;4.57;1.90;;;;;;;20.43;27.72;101239.13;21021202;28;20232;-78
2023/05/31 12:12:12;;;;;;;3.38;1.52;;;;;;;20.21;28.74;101220.78;20981389;28;20264;-78
2023/05/31 12:22:15;;;;;;;4.00;1.65;;;;;;;21.76;26.65;101208.63;20993533;28;20249;-81
2023/05/31 12:32:19;;;;;;;4.82;1.45;;;;;;;21.21;27.58;101202.78;20970608;28;20218;-78
2023/05/31 12:42:24;;;;;;;5.70;1.33;;;;;;;21.69;28.66;101180.66;21002717;28;20192;-79
2023/05/31 12:52:27;;;;;;;6.70;1.83;;;;;;;21.16;27.81;101174.41;20981724;28;20276;-78
2023/05/31 13:02:29;;;;;;;8.50;1.50;;;;;;;21.28;26.53;101174.13;21004808;28;20261;-78
2023/05/31 13:12:31;;;;;;;5.90;2.17;;;;;;;20.37;30.13;101166.91;20995996;28;20210;-79
2023/05/31 13:22:34;;;;;;;5.68;1.40;;;;;;;20.51;29.99;101137.59;21022759;28;20240;-78
2023/05/31 13:32:36;;;;;;;4.07;1.50;;;;;;;22.24;26.92;101149.00;21004599;28;20728;-78
2023/05/31 13:42:38;;;;;;;4.70;1.55;;;;;;;21.97;28.48;101139.78;20988241;28;20184;-78
2023/05/31 13:52:41;;;;;;;3.22;1.50;;;;;;;21.32;29.21;101131.91;21013002;28;20701;-79
2023/05/31 14:02:43;;;;;;;7.70;1.60;;;;;;;21.10;28.74;101102.19;20997596;28;20191;-79
2023/05/31 14:12:47;;;;;;;4.00;1.50;;;;;;;21.34;27.71;101112.22;21001901;28;20222;-78
2023/05/31 14:22:49;;;;;;;9.70;1.65;;;;;;;21.35;28.32;101105.25;21000865;28;20195;-78
2023/05/31 14:32:52;;;;;;;7.13;1.95;;;;;;;21.97;28.72;101096.66;20986639;28;20249;-78
2023/05/31 14:42:55;;;;;;;4.55;1.63;;;;;;;21.51;28.90;101091.41;20990411;28;20199;-78
2023/05/31 14:52:58;;;;;;;6.25;2.08;;;;;;;20.71;30.75;101096.03;21007842;28;20211;-77
2023/05/31 15:03:00;;;;;;;5.80;1.77;;;;;;;21.33;29.56;101092.50;21000549;28;20187;-77
2023/05/31 15:13:03;;;;;;;3.78;2.00;;;;;;;20.72;29.96;101089.09;20987095;28;20227;-78
2023/05/31 15:23:05;;;;;;;2.97;1.75;;;;;;;20.94;30.37;101092.16;20970364;28;20237;-78
2023/05/31 15:33:07;;;;;;;3.50;1.73;;;;;;;21.15;29.70;101081.69;20948751;28;20273;-77
2023/05/31 15:43:10;;;;;;;7.22;2.03;;;;;;;20.62;30.71;101072.56;20959122;28;20500;-77
2023/05/31 15:53:13;;;;;;;3.88;1.75;;;;;;;20.96;31.17;101075.38;20991819;28;20233;-77
2023/05/31 16:03:15;;;;;;;4.00;1.85;;;;;;;20.79;30.66;101068.22;20936839;28;20192;-77
2023/05/31 16:13:18;;;;;;;5.40;1.98;;;;;;;20.77;31.04;101064.91;20948146;28;20277;-78
2023/05/31 16:23:22;;;;;;;3.65;1.80;;;;;;;20.62;31.19;101061.09;20941495;28;20203;-77
2023/05/31 16:33:24;;;;;;;5.30;1.60;;;;;;;20.33;31.74;101053.38;20949741;28;20223;-77
2023/05/31 16:43:27;;;;;;;4.38;1.70;;;;;;;20.52;31.59;101041.72;20959222;28;20584;-77
2023/05/31 16:53:29;;;;;;;6.03;1.77;;;;;;;20.06;31.30;101036.28;20937827;28;20215;-77
2023/05/31 17:03:39;;;;;;;4.28;1.30;;;;;;;21.16;29.64;101027.97;20998673;28;20191;-77
2023/05/31 17:13:42;;;;;;;10.07;2.33;;;;;;;20.48;30.87;101020.78;20953973;28;20219;-77
2023/05/31 17:23:44;;;;;;;4.78;1.65;;;;;;;20.04;30.70;101015.78;20966800;28;20546;-77
2023/05/31 17:33:46;;;;;;;5.70;2.10;;;;;;;19.80;31.28;101016.31;20944466;28;20223;-78
2023/05/31 17:43:49;;;;;;;9.32;2.05;;;;;;;19.43;31.13;101014.09;20971394;28;20254;-78
2023/05/31 17:53:51;;;;;;;5.50;1.33;;;;;;;19.96;30.56;100996.81;20938708;28;20511;-77
2023/05/31 18:03:54;;;;;;;3.53;1.40;;;;;;;19.38;30.91;101000.16;20956460;28;20644;-76
2023/05/31 18:13:56;;;;;;;2.22;1.30;;;;;;;19.25;30.90;101001.59;20891047;28;20257;-77
2023/05/31 18:23:58;;;;;;;2.90;1.40;;;;;;;19.32;31.68;101004.53;20878516;28;20600;-76
2023/05/31 18:34:01;;;;;;;2.67;0.90;;;;;;;19.28;31.82;100997.13;20873440;28;20239;-76
2023/05/31 18:44:03;;;;;;;2.75;1.45;;;;;;;19.40;31.81;100991.16;20937701;28;20222;-77
2023/05/31 18:54:05;;;;;;;4.95;1.52;;;;;;;19.05;32.32;101002.84;20870204;28;20270;-76
2023/05/31 19:04:08;;;;;;;3.65;1.70;;;;;;;19.07;32.51;100991.84;20856950;28;20619;-77
2023/05/31 19:14:10;;;;;;;7.43;2.50;;;;;;;18.36;34.84;101002.06;20948870;28;20214;-75
2023/05/31 19:24:13;;;;;;;6.03;1.42;;;;;;;18.66;34.76;101007.94;20971172;28;20187;-76
2023/05/31 19:34:15;;;;;;;3.88;1.50;;;;;;;18.78;33.71;100998.34;20966653;28;20264;-76
2023/05/31 19:44:18;;;;;;;3.17;1.23;;;;;;;18.18;35.15;101009.47;21001802;28;20470;-77
2023/05/31 19:54:22;;;;;;;3.83;1.13;;;;;;;17.80;36.01;101008.25;21000677;28;20670;-77
2023/05/31 20:04:25;;;;;;;3.97;1.52;;;;;;;17.60;36.42;101018.88;20971070;28;20222;-77
2023/05/31 20:14:27;;;;;;;3.90;2.03;;;;;;;17.28;37.07;101032.41;20951759;28;20250;-77
2023/05/31 20:24:30;;;;;;;5.05;2.22;;;;;;;16.94;37.92;101036.00;20981227;28;20199;-78
2023/05/31 20:34:32;;;;;;;2.47;1.50;;;;;;;17.00;38.22;101043.06;20971576;28;20222;-80
2023/05/31 20:44:35;;;;;;;5.05;1.67;;;;;;;16.95;38.70;101038.50;20997089;28;20195;-78
2023/05/31 20:54:37;;;;;;;3.88;2.10;;;;;;;16.61;39.83;101051.44;20996620;28;20222;-77
2023/05/31 21:04:40;;;;;;;4.30;2.28;;;;;;;16.04;41.14;101057.56;21018339;28;20218;-79
2023/05/31 21:14:43;;;;;;;4.78;1.80;;;;;;;15.67;42.16;101064.56;20972845;28;20561;-77
2023/05/31 21:24:45;;;;;;;3.33;1.33;;;;;;;15.77;42.81;101066.88;20974690;28;20272;-78
2023/05/31 21:34:47;;;;;;;3.08;1.40;;;;;;;15.63;42.64;101064.44;21007145;28;20288;-77
2023/05/31 21:44:50;;;;;;;3.15;1.25;;;;;;;15.55;42.47;101071.06;21013029;28;20206;-78
2023/05/31 21:54:52;;;;;;;4.55;1.10;;;;;;;15.39;42.21;101085.22;20967418;28;20308;-79
2023/05/31 22:04:54;;;;;;;1.92;0.70;;;;;;;15.25;42.05;101083.94;21001553;28;20215;-78
2023/05/31 22:14:57;;;;;;;2.95;1.33;;;;;;;14.78;42.96;101081.50;20986085;28;20223;-79
2023/05/31 22:24:59;;;;;;;3.47;1.08;;;;;;;15.36;41.77;101080.25;20987516;28;20241;-78
2023/05/31 22:35:15;;;;;;;7.70;0.93;;;;;;;14.63;43.24;101090.72;20979324;28;20273;-79
2023/05/31 22:45:17;;;;;;;1.90;1.10;;;;;;;14.48;43.26;101098.72;21007734;28;20263;-78
2023/05/31 22:55:20;;;;;;;5.70;1.23;;;;;;;14.66;43.06;101107.88;20973184;28;20215;-80
2023/05/31 23:05:23;;;;;;;3.67;1.00;;;;;;;14.55;44.64;101114.38;20966696;28;20204;-78
2023/05/31 23:15:27;;;;;;;5.07;1.30;;;;;;;13.55;47.27;101116.19;20976455;28;20271;-78
2023/05/31 23:25:29;;;;;;;8.57;2.67;;;;;;;13.34;50.05;101123.81;21006595;28;20188;-78
2023/05/31 23:35:32;;;;;;;6.95;2.85;;;;;;;13.45;51.21;101125.09;20945894;28;20212;-78
2023/05/31 23:45:34;;;;;;;8.40;3.45;;;;;;;13.17;52.48;101136.09;20951787;28;20194;-77
2023/05/31 23:55:36;;;;;;;8.32;3.53;;;;;;;12.89;53.45;101134.84;21013186;28;20557;-80
